sensor_id;sensor_type;location;lat;lon;timestamp;temperature;humidity
20512;DHT22;10414;52.074;5.126;2023-02-28T00:00:40;3.60;99.90
20512;DHT22;10414;52.074;5.126;2023-02-28T00:03:07;3.50;99.90
20512;DHT22;10414;52.074;5.126;2023-02-28T00:05:34;3.40;99.90
20512;DHT22;10414;52.074;5.126;2023-02-28T00:08:01;3.50;99.90
20512;DHT22;10414;52.074;5.126;2023-02-28T00:10:29;3.60;99.90
20512;DHT22;10414;52.074;5.126;2023-02-28T00:13:00;3.50;99.90
20512;DHT22;10414;52.074;5.126;2023-02-28T00:15:29;3.50;99.90
20512;DHT22;10414;52.074;5.126;2023-02-28T00:17:56;3.40;99.90
20512;DHT22;10414;52.074;5.126;2023-02-28T00:20:23;3.40;99.90
20512;DHT22;10414;52.074;5.126;2023-02-28T00:22:52;3.40;99.90
20512;DHT22;10414;52.074;5.126;2023-02-28T00:25:21;3.60;99.90
20512;DHT22;10414;52.074;5.126;2023-02-28T00:27:48;3.70;99.90
20512;DHT22;10414;52.074;5.126;2023-02-28T00:30:17;3.90;99.90
20512;DHT22;10414;52.074;5.126;2023-02-28T00:32:45;3.90;99.90
20512;DHT22;10414;52.074;5.126;2023-02-28T00:35:12;4.10;99.90
20512;DHT22;10414;52.074;5.126;2023-02-28T00:37:40;4.30;99.90
20512;DHT22;10414;52.074;5.126;2023-02-28T00:40:08;4.30;99.90
20512;DHT22;10414;52.074;5.126;2023-02-28T00:42:35;4.10;99.90
20512;DHT22;10414;52.074;5.126;2023-02-28T00:45:04;4.30;99.90
20512;DHT22;10414;52.074;5.126;2023-02-28T00:47:31;4.50;99.90
20512;DHT22;10414;52.074;5.126;2023-02-28T00:49:59;4.40;99.90
20512;DHT22;10414;52.074;5.126;2023-02-28T00:52:27;4.40;99.90
20512;DHT22;10414;52.074;5.126;2023-02-28T00:54:54;4.40;99.90
20512;DHT22;10414;52.074;5.126;2023-02-28T00:57:21;4.20;99.90
20512;DHT22;10414;52.074;5.126;2023-02-28T00:59:48;4.00;99.90
20512;DHT22;10414;52.074;5.126;2023-02-28T01:02:15;4.00;99.90
20512;DHT22;10414;52.074;5.126;2023-02-28T01:04:43;4.20;99.90
20512;DHT22;10414;52.074;5.126;2023-02-28T01:07:12;4.50;99.90
20512;DHT22;10414;52.074;5.126;2023-02-28T01:09:40;4.50;99.90
20512;DHT22;10414;52.074;5.126;2023-02-28T01:12:07;4.40;99.90
20512;DHT22;10414;52.074;5.126;2023-02-28T01:14:35;4.30;99.90
20512;DHT22;10414;52.074;5.126;2023-02-28T01:17:02;4.30;99.90
20512;DHT22;10414;52.074;5.126;2023-02-28T01:19:29;4.60;99.90
20512;DHT22;10414;52.074;5.126;2023-02-28T01:21:56;4.30;99.90
20512;DHT22;10414;52.074;5.126;2023-02-28T01:24:24;4.20;99.90
20512;DHT22;10414;52.074;5.126;2023-02-28T01:26:51;4.10;99.90
20512;DHT22;10414;52.074;5.126;2023-02-28T01:29:18;4.00;99.90
20512;DHT22;10414;52.074;5.126;2023-02-28T01:31:45;4.20;99.90
20512;DHT22;10414;52.074;5.126;2023-02-28T01:34:12;4.20;99.90
20512;DHT22;10414;52.074;5.126;2023-02-28T01:36:39;4.30;99.90
20512;DHT22;10414;52.074;5.126;2023-02-28T01:39:06;4.40;99.90
20512;DHT22;10414;52.074;5.126;2023-02-28T01:41:34;4.40;99.90
20512;DHT22;10414;52.074;5.126;2023-02-28T01:44:05;4.70;99.90
20512;DHT22;10414;52.074;5.126;2023-02-28T01:46:34;4.40;99.90
20512;DHT22;10414;52.074;5.126;2023-02-28T01:49:05;4.20;99.90
20512;DHT22;10414;52.074;5.126;2023-02-28T01:51:37;4.20;99.90
20512;DHT22;10414;52.074;5.126;2023-02-28T01:54:08;3.80;99.90
20512;DHT22;10414;52.074;5.126;2023-02-28T01:56:43;3.80;99.90
20512;DHT22;10414;52.074;5.126;2023-02-28T01:59:16;4.00;99.90
20512;DHT22;10414;52.074;5.126;2023-02-28T02:01:47;3.90;99.90
20512;DHT22;10414;52.074;5.126;2023-02-28T02:04:14;4.00;99.90
20512;DHT22;10414;52.074;5.126;2023-02-28T02:06:44;4.20;99.90
20512;DHT22;10414;52.074;5.126;2023-02-28T02:09:12;4.20;99.90
20512;DHT22;10414;52.074;5.126;2023-02-28T02:11:42;4.30;99.90
20512;DHT22;10414;52.074;5.126;2023-02-28T02:14:36;4.40;99.90
20512;DHT22;10414;52.074;5.126;2023-02-28T02:17:14;4.30;99.90
20512;DHT22;10414;52.074;5.126;2023-02-28T02:20:00;4.40;99.90
20512;DHT22;10414;52.074;5.126;2023-02-28T02:22:49;4.50;99.90
20512;DHT22;10414;52.074;5.126;2023-02-28T02:25:26;4.40;99.90
20512;DHT22;10414;52.074;5.126;2023-02-28T02:28:09;4.50;99.90
20512;DHT22;10414;52.074;5.126;2023-02-28T02:31:06;4.50;99.90
20512;DHT22;10414;52.074;5.126;2023-02-28T02:34:04;4.40;99.90
20512;DHT22;10414;52.074;5.126;2023-02-28T02:36:36;4.50;99.90
20512;DHT22;10414;52.074;5.126;2023-02-28T02:39:09;4.50;99.90
20512;DHT22;10414;52.074;5.126;2023-02-28T02:41:41;4.40;99.90
20512;DHT22;10414;52.074;5.126;2023-02-28T02:44:17;4.20;99.90
20512;DHT22;10414;52.074;5.126;2023-02-28T02:46:46;4.40;99.90
20512;DHT22;10414;52.074;5.126;2023-02-28T02:49:17;4.30;99.90
20512;DHT22;10414;52.074;5.126;2023-02-28T02:51:46;4.50;99.90
20512;DHT22;10414;52.074;5.126;2023-02-28T02:54:17;4.50;99.90
20512;DHT22;10414;52.074;5.126;2023-02-28T02:56:47;4.70;99.90
20512;DHT22;10414;52.074;5.126;2023-02-28T02:59:19;4.60;99.90
20512;DHT22;10414;52.074;5.126;2023-02-28T03:01:49;4.60;99.90
20512;DHT22;10414;52.074;5.126;2023-02-28T03:04:20;4.60;99.90
20512;DHT22;10414;52.074;5.126;2023-02-28T03:06:47;4.60;99.90
20512;DHT22;10414;52.074;5.126;2023-02-28T03:09:14;4.70;99.90
20512;DHT22;10414;52.074;5.126;2023-02-28T03:11:42;4.80;99.90
20512;DHT22;10414;52.074;5.126;2023-02-28T03:14:25;4.70;99.90
20512;DHT22;10414;52.074;5.126;2023-02-28T03:17:03;4.70;99.90
20512;DHT22;10414;52.074;5.126;2023-02-28T03:19:46;4.70;99.90
20512;DHT22;10414;52.074;5.126;2023-02-28T03:22:40;4.80;99.90
20512;DHT22;10414;52.074;5.126;2023-02-28T03:25:17;5.10;99.90
20512;DHT22;10414;52.074;5.126;2023-02-28T03:27:54;5.00;99.90
20512;DHT22;10414;52.074;5.126;2023-02-28T03:30:24;5.00;99.90
20512;DHT22;10414;52.074;5.126;2023-02-28T03:32:55;5.20;99.90
20512;DHT22;10414;52.074;5.126;2023-02-28T03:35:28;5.40;99.90
20512;DHT22;10414;52.074;5.126;2023-02-28T03:38:00;5.30;99.90
20512;DHT22;10414;52.074;5.126;2023-02-28T03:40:33;5.40;99.90
20512;DHT22;10414;52.074;5.126;2023-02-28T03:43:07;5.40;99.90
20512;DHT22;10414;52.074;5.126;2023-02-28T03:45:36;5.00;99.90
20512;DHT22;10414;52.074;5.126;2023-02-28T03:48:08;5.10;99.90
20512;DHT22;10414;52.074;5.126;2023-02-28T03:50:41;4.90;99.90
20512;DHT22;10414;52.074;5.126;2023-02-28T03:53:11;4.80;99.90
20512;DHT22;10414;52.074;5.126;2023-02-28T03:55:43;4.50;99.90
20512;DHT22;10414;52.074;5.126;2023-02-28T03:58:15;4.50;99.90
20512;DHT22;10414;52.074;5.126;2023-02-28T04:00:49;4.30;99.90
20512;DHT22;10414;52.074;5.126;2023-02-28T04:03:19;4.30;99.90
20512;DHT22;10414;52.074;5.126;2023-02-28T04:05:53;4.30;99.90
20512;DHT22;10414;52.074;5.126;2023-02-28T04:08:21;4.40;99.90
20512;DHT22;10414;52.074;5.126;2023-02-28T04:10:53;4.40;99.90
20512;DHT22;10414;52.074;5.126;2023-02-28T04:13:22;4.30;99.90
20512;DHT22;10414;52.074;5.126;2023-02-28T04:15:49;4.30;99.90
20512;DHT22;10414;52.074;5.126;2023-02-28T04:18:16;4.30;99.90
20512;DHT22;10414;52.074;5.126;2023-02-28T04:20:43;4.30;99.90
20512;DHT22;10414;52.074;5.126;2023-02-28T04:23:11;4.20;99.90
20512;DHT22;10414;52.074;5.126;2023-02-28T04:25:38;4.10;99.90
20512;DHT22;10414;52.074;5.126;2023-02-28T04:28:06;4.10;99.90
20512;DHT22;10414;52.074;5.126;2023-02-28T04:30:33;4.00;99.90
20512;DHT22;10414;52.074;5.126;2023-02-28T04:33:00;4.10;99.90
20512;DHT22;10414;52.074;5.126;2023-02-28T04:35:27;4.10;99.90
20512;DHT22;10414;52.074;5.126;2023-02-28T04:37:54;4.00;99.90
20512;DHT22;10414;52.074;5.126;2023-02-28T04:40:22;4.20;99.90
20512;DHT22;10414;52.074;5.126;2023-02-28T04:42:49;4.10;99.90
20512;DHT22;10414;52.074;5.126;2023-02-28T04:45:16;4.20;99.90
20512;DHT22;10414;52.074;5.126;2023-02-28T04:47:43;4.30;99.90
20512;DHT22;10414;52.074;5.126;2023-02-28T04:50:10;4.10;99.90
20512;DHT22;10414;52.074;5.126;2023-02-28T04:52:37;3.90;99.90
20512;DHT22;10414;52.074;5.126;2023-02-28T04:55:05;3.70;99.90
20512;DHT22;10414;52.074;5.126;2023-02-28T04:57:33;3.60;99.90
20512;DHT22;10414;52.074;5.126;2023-02-28T05:00:00;3.70;99.90
20512;DHT22;10414;52.074;5.126;2023-02-28T05:02:34;3.70;99.90
20512;DHT22;10414;52.074;5.126;2023-02-28T05:05:01;3.70;99.90
20512;DHT22;10414;52.074;5.126;2023-02-28T05:07:28;3.60;99.90
20512;DHT22;10414;52.074;5.126;2023-02-28T05:09:55;3.40;99.90
20512;DHT22;10414;52.074;5.126;2023-02-28T05:12:22;3.40;99.90
20512;DHT22;10414;52.074;5.126;2023-02-28T05:14:50;3.40;99.90
20512;DHT22;10414;52.074;5.126;2023-02-28T05:17:17;3.50;99.90
20512;DHT22;10414;52.074;5.126;2023-02-28T05:19:44;3.70;99.90
20512;DHT22;10414;52.074;5.126;2023-02-28T05:22:13;3.50;99.90
20512;DHT22;10414;52.074;5.126;2023-02-28T05:24:41;3.40;99.90
20512;DHT22;10414;52.074;5.126;2023-02-28T05:27:08;3.40;99.90
20512;DHT22;10414;52.074;5.126;2023-02-28T05:29:35;3.40;99.90
20512;DHT22;10414;52.074;5.126;2023-02-28T05:32:09;3.20;99.90
20512;DHT22;10414;52.074;5.126;2023-02-28T05:34:36;3.30;99.90
20512;DHT22;10414;52.074;5.126;2023-02-28T05:37:03;3.40;99.90
20512;DHT22;10414;52.074;5.126;2023-02-28T05:39:30;3.30;99.90
20512;DHT22;10414;52.074;5.126;2023-02-28T05:41:57;3.10;99.90
20512;DHT22;10414;52.074;5.126;2023-02-28T05:44:24;3.00;99.90
20512;DHT22;10414;52.074;5.126;2023-02-28T05:46:51;2.90;99.90
20512;DHT22;10414;52.074;5.126;2023-02-28T05:49:19;2.70;99.90
20512;DHT22;10414;52.074;5.126;2023-02-28T05:51:46;2.50;99.90
20512;DHT22;10414;52.074;5.126;2023-02-28T05:54:13;2.40;99.90
20512;DHT22;10414;52.074;5.126;2023-02-28T05:56:41;2.50;99.90
20512;DHT22;10414;52.074;5.126;2023-02-28T05:59:09;2.50;99.90
20512;DHT22;10414;52.074;5.126;2023-02-28T06:01:38;2.40;99.90
20512;DHT22;10414;52.074;5.126;2023-02-28T06:04:07;2.40;99.90
20512;DHT22;10414;52.074;5.126;2023-02-28T06:06:36;2.60;99.90
20512;DHT22;10414;52.074;5.126;2023-02-28T06:09:03;2.20;99.90
20512;DHT22;10414;52.074;5.126;2023-02-28T06:11:31;2.20;99.90
20512;DHT22;10414;52.074;5.126;2023-02-28T06:13:58;2.20;99.90
20512;DHT22;10414;52.074;5.126;2023-02-28T06:16:26;2.20;99.90
20512;DHT22;10414;52.074;5.126;2023-02-28T06:18:53;2.30;99.90
20512;DHT22;10414;52.074;5.126;2023-02-28T06:21:22;2.30;99.90
20512;DHT22;10414;52.074;5.126;2023-02-28T06:23:50;1.90;99.90
20512;DHT22;10414;52.074;5.126;2023-02-28T06:26:17;1.90;99.90
20512;DHT22;10414;52.074;5.126;2023-02-28T06:28:44;2.00;99.90
20512;DHT22;10414;52.074;5.126;2023-02-28T06:31:13;2.00;99.90
20512;DHT22;10414;52.074;5.126;2023-02-28T06:33:41;2.10;99.90
20512;DHT22;10414;52.074;5.126;2023-02-28T06:36:09;2.40;99.90
20512;DHT22;10414;52.074;5.126;2023-02-28T06:38:37;2.30;99.90
20512;DHT22;10414;52.074;5.126;2023-02-28T06:41:05;2.40;99.90
20512;DHT22;10414;52.074;5.126;2023-02-28T06:43:34;2.70;99.90
20512;DHT22;10414;52.074;5.126;2023-02-28T06:46:03;2.30;99.90
20512;DHT22;10414;52.074;5.126;2023-02-28T06:48:31;2.60;99.90
20512;DHT22;10414;52.074;5.126;2023-02-28T06:51:06;3.10;99.90
20512;DHT22;10414;52.074;5.126;2023-02-28T06:53:33;3.80;99.90
20512;DHT22;10414;52.074;5.126;2023-02-28T06:56:05;3.50;99.90
20512;DHT22;10414;52.074;5.126;2023-02-28T06:58:33;4.00;99.90
20512;DHT22;10414;52.074;5.126;2023-02-28T07:01:01;4.30;99.90
20512;DHT22;10414;52.074;5.126;2023-02-28T07:03:28;4.70;99.90
20512;DHT22;10414;52.074;5.126;2023-02-28T07:05:55;4.70;99.90
20512;DHT22;10414;52.074;5.126;2023-02-28T07:08:22;4.90;99.90
20512;DHT22;10414;52.074;5.126;2023-02-28T07:10:52;4.90;99.90
20512;DHT22;10414;52.074;5.126;2023-02-28T07:13:21;5.10;99.90
20512;DHT22;10414;52.074;5.126;2023-02-28T07:15:55;4.90;99.90
20512;DHT22;10414;52.074;5.126;2023-02-28T07:18:23;4.90;99.90
20512;DHT22;10414;52.074;5.126;2023-02-28T07:20:50;5.00;99.90
20512;DHT22;10414;52.074;5.126;2023-02-28T07:23:18;5.20;99.90
20512;DHT22;10414;52.074;5.126;2023-02-28T07:25:45;5.20;99.90
20512;DHT22;10414;52.074;5.126;2023-02-28T07:28:12;5.00;99.90
20512;DHT22;10414;52.074;5.126;2023-02-28T07:30:41;4.80;99.90
20512;DHT22;10414;52.074;5.126;2023-02-28T07:33:08;4.90;99.90
20512;DHT22;10414;52.074;5.126;2023-02-28T07:35:36;5.10;99.90
20512;DHT22;10414;52.074;5.126;2023-02-28T07:38:03;5.30;99.90
20512;DHT22;10414;52.074;5.126;2023-02-28T07:40:30;5.00;99.90
20512;DHT22;10414;52.074;5.126;2023-02-28T07:42:58;4.80;99.90
20512;DHT22;10414;52.074;5.126;2023-02-28T07:45:26;4.70;99.90
20512;DHT22;10414;52.074;5.126;2023-02-28T07:47:55;4.70;99.90
20512;DHT22;10414;52.074;5.126;2023-02-28T07:50:23;4.80;99.90
20512;DHT22;10414;52.074;5.126;2023-02-28T07:52:50;4.80;99.90
20512;DHT22;10414;52.074;5.126;2023-02-28T07:55:17;4.50;99.90
20512;DHT22;10414;52.074;5.126;2023-02-28T07:57:44;4.60;99.90
20512;DHT22;10414;52.074;5.126;2023-02-28T08:00:12;4.60;99.90
20512;DHT22;10414;52.074;5.126;2023-02-28T08:02:39;4.50;99.90
20512;DHT22;10414;52.074;5.126;2023-02-28T08:05:08;4.70;99.90
20512;DHT22;10414;52.074;5.126;2023-02-28T08:07:35;4.50;99.90
20512;DHT22;10414;52.074;5.126;2023-02-28T08:10:02;4.40;99.90
20512;DHT22;10414;52.074;5.126;2023-02-28T08:12:31;4.60;99.90
20512;DHT22;10414;52.074;5.126;2023-02-28T08:14:58;4.80;99.90
20512;DHT22;10414;52.074;5.126;2023-02-28T08:17:25;4.80;99.90
20512;DHT22;10414;52.074;5.126;2023-02-28T08:19:52;5.10;99.90
20512;DHT22;10414;52.074;5.126;2023-02-28T08:22:21;5.40;99.90
20512;DHT22;10414;52.074;5.126;2023-02-28T08:24:47;5.30;99.90
20512;DHT22;10414;52.074;5.126;2023-02-28T08:27:14;5.10;99.90
20512;DHT22;10414;52.074;5.126;2023-02-28T08:29:42;4.60;99.90
20512;DHT22;10414;52.074;5.126;2023-02-28T08:32:09;4.40;99.90
20512;DHT22;10414;52.074;5.126;2023-02-28T08:34:39;4.70;99.90
20512;DHT22;10414;52.074;5.126;2023-02-28T08:37:06;4.70;99.90
20512;DHT22;10414;52.074;5.126;2023-02-28T08:39:35;4.50;99.90
20512;DHT22;10414;52.074;5.126;2023-02-28T08:42:03;4.50;99.90
20512;DHT22;10414;52.074;5.126;2023-02-28T08:44:30;4.40;99.90
20512;DHT22;10414;52.074;5.126;2023-02-28T08:46:57;4.50;99.90
20512;DHT22;10414;52.074;5.126;2023-02-28T08:49:24;4.60;99.90
20512;DHT22;10414;52.074;5.126;2023-02-28T08:51:51;5.00;99.90
20512;DHT22;10414;52.074;5.126;2023-02-28T08:54:18;4.60;99.90
20512;DHT22;10414;52.074;5.126;2023-02-28T08:56:46;4.70;99.90
20512;DHT22;10414;52.074;5.126;2023-02-28T08:59:13;4.50;99.90
20512;DHT22;10414;52.074;5.126;2023-02-28T09:01:41;4.60;99.90
20512;DHT22;10414;52.074;5.126;2023-02-28T09:04:09;4.80;99.90
20512;DHT22;10414;52.074;5.126;2023-02-28T09:06:37;4.60;99.90
20512;DHT22;10414;52.074;5.126;2023-02-28T09:09:04;4.50;99.90
20512;DHT22;10414;52.074;5.126;2023-02-28T09:11:33;4.30;99.90
20512;DHT22;10414;52.074;5.126;2023-02-28T09:14:01;4.50;99.90
20512;DHT22;10414;52.074;5.126;2023-02-28T09:16:30;4.40;99.90
20512;DHT22;10414;52.074;5.126;2023-02-28T09:18:57;4.70;99.90
20512;DHT22;10414;52.074;5.126;2023-02-28T09:21:25;4.30;99.90
20512;DHT22;10414;52.074;5.126;2023-02-28T09:23:52;4.10;99.90
20512;DHT22;10414;52.074;5.126;2023-02-28T09:26:20;4.00;99.90
20512;DHT22;10414;52.074;5.126;2023-02-28T09:28:48;3.90;99.90
20512;DHT22;10414;52.074;5.126;2023-02-28T09:31:18;3.80;99.90
20512;DHT22;10414;52.074;5.126;2023-02-28T09:33:47;4.00;99.90
20512;DHT22;10414;52.074;5.126;2023-02-28T09:36:14;4.20;99.90
20512;DHT22;10414;52.074;5.126;2023-02-28T09:38:40;4.30;99.90
20512;DHT22;10414;52.074;5.126;2023-02-28T09:41:13;4.70;99.90
20512;DHT22;10414;52.074;5.126;2023-02-28T09:43:43;5.00;99.90
20512;DHT22;10414;52.074;5.126;2023-02-28T09:46:20;4.80;99.90
20512;DHT22;10414;52.074;5.126;2023-02-28T09:48:48;5.60;99.90
20512;DHT22;10414;52.074;5.126;2023-02-28T09:51:29;5.50;99.90
20512;DHT22;10414;52.074;5.126;2023-02-28T09:53:56;5.20;99.90
20512;DHT22;10414;52.074;5.126;2023-02-28T09:56:26;5.50;99.90
20512;DHT22;10414;52.074;5.126;2023-02-28T09:58:57;5.40;99.90
20512;DHT22;10414;52.074;5.126;2023-02-28T10:01:34;5.70;99.90
20512;DHT22;10414;52.074;5.126;2023-02-28T10:04:08;6.10;99.90
20512;DHT22;10414;52.074;5.126;2023-02-28T10:06:43;6.50;99.90
20512;DHT22;10414;52.074;5.126;2023-02-28T10:09:15;6.90;99.90
20512;DHT22;10414;52.074;5.126;2023-02-28T10:11:44;6.10;99.90
20512;DHT22;10414;52.074;5.126;2023-02-28T10:14:15;5.70;99.90
20512;DHT22;10414;52.074;5.126;2023-02-28T10:16:46;5.80;99.90
20512;DHT22;10414;52.074;5.126;2023-02-28T10:19:22;6.10;99.90
20512;DHT22;10414;52.074;5.126;2023-02-28T10:21:56;6.20;99.90
20512;DHT22;10414;52.074;5.126;2023-02-28T10:24:29;6.40;99.90
20512;DHT22;10414;52.074;5.126;2023-02-28T10:27:00;5.90;99.30
20512;DHT22;10414;52.074;5.126;2023-02-28T10:29:27;5.40;99.90
20512;DHT22;10414;52.074;5.126;2023-02-28T10:32:02;5.60;99.50
20512;DHT22;10414;52.074;5.126;2023-02-28T10:34:30;6.00;99.50
20512;DHT22;10414;52.074;5.126;2023-02-28T10:36:58;6.30;99.10
20512;DHT22;10414;52.074;5.126;2023-02-28T10:39:41;6.30;98.50
20512;DHT22;10414;52.074;5.126;2023-02-28T10:42:23;6.20;98.60
20512;DHT22;10414;52.074;5.126;2023-02-28T10:45:05;6.20;97.90
20512;DHT22;10414;52.074;5.126;2023-02-28T10:47:48;6.60;98.30
20512;DHT22;10414;52.074;5.126;2023-02-28T10:50:34;8.20;96.60
20512;DHT22;10414;52.074;5.126;2023-02-28T10:53:33;9.20;95.30
20512;DHT22;10414;52.074;5.126;2023-02-28T10:56:02;10.10;92.70
20512;DHT22;10414;52.074;5.126;2023-02-28T10:58:31;10.50;90.30
20512;DHT22;10414;52.074;5.126;2023-02-28T11:01:13;10.90;87.10
20512;DHT22;10414;52.074;5.126;2023-02-28T11:03:42;12.20;84.60
20512;DHT22;10414;52.074;5.126;2023-02-28T11:06:15;11.60;82.50
20512;DHT22;10414;52.074;5.126;2023-02-28T11:08:45;9.40;84.70
20512;DHT22;10414;52.074;5.126;2023-02-28T11:11:13;10.20;88.00
20512;DHT22;10414;52.074;5.126;2023-02-28T11:13:40;11.10;86.40
20512;DHT22;10414;52.074;5.126;2023-02-28T11:16:09;9.10;86.30
20512;DHT22;10414;52.074;5.126;2023-02-28T11:18:42;8.70;89.80
20512;DHT22;10414;52.074;5.126;2023-02-28T11:21:16;8.20;90.00
20512;DHT22;10414;52.074;5.126;2023-02-28T11:23:44;8.40;90.30
20512;DHT22;10414;52.074;5.126;2023-02-28T11:26:11;8.60;91.20
20512;DHT22;10414;52.074;5.126;2023-02-28T11:28:40;9.40;91.20
20512;DHT22;10414;52.074;5.126;2023-02-28T11:31:17;8.50;91.30
20512;DHT22;10414;52.074;5.126;2023-02-28T11:33:49;8.90;90.30
20512;DHT22;10414;52.074;5.126;2023-02-28T11:36:20;8.60;90.90
20512;DHT22;10414;52.074;5.126;2023-02-28T11:38:50;8.50;91.30
20512;DHT22;10414;52.074;5.126;2023-02-28T11:41:42;8.20;91.30
20512;DHT22;10414;52.074;5.126;2023-02-28T11:44:24;8.00;92.00
20512;DHT22;10414;52.074;5.126;2023-02-28T11:46:58;8.40;89.70
20512;DHT22;10414;52.074;5.126;2023-02-28T11:49:34;8.10;91.90
20512;DHT22;10414;52.074;5.126;2023-02-28T11:52:09;8.10;91.00
20512;DHT22;10414;52.074;5.126;2023-02-28T11:55:01;8.30;91.60
20512;DHT22;10414;52.074;5.126;2023-02-28T11:57:46;8.70;91.20
20512;DHT22;10414;52.074;5.126;2023-02-28T12:00:28;7.30;90.70
20512;DHT22;10414;52.074;5.126;2023-02-28T12:03:09;7.20;92.30
20512;DHT22;10414;52.074;5.126;2023-02-28T12:05:43;7.60;91.80
20512;DHT22;10414;52.074;5.126;2023-02-28T12:08:23;8.40;90.60
20512;DHT22;10414;52.074;5.126;2023-02-28T12:11:00;8.20;91.00
20512;DHT22;10414;52.074;5.126;2023-02-28T12:13:36;7.70;91.70
20512;DHT22;10414;52.074;5.126;2023-02-28T12:16:27;7.50;91.70
20512;DHT22;10414;52.074;5.126;2023-02-28T12:19:01;6.80;92.40
20512;DHT22;10414;52.074;5.126;2023-02-28T12:21:41;6.70;92.60
20512;DHT22;10414;52.074;5.126;2023-02-28T12:24:25;6.80;91.70
20512;DHT22;10414;52.074;5.126;2023-02-28T12:26:59;7.10;92.10
20512;DHT22;10414;52.074;5.126;2023-02-28T12:29:29;7.10;92.30
20512;DHT22;10414;52.074;5.126;2023-02-28T12:31:59;7.10;92.10
20512;DHT22;10414;52.074;5.126;2023-02-28T12:34:31;7.00;91.20
20512;DHT22;10414;52.074;5.126;2023-02-28T12:37:04;6.90;91.20
20512;DHT22;10414;52.074;5.126;2023-02-28T12:39:36;6.80;92.20
20512;DHT22;10414;52.074;5.126;2023-02-28T12:42:07;7.00;91.50
20512;DHT22;10414;52.074;5.126;2023-02-28T12:44:42;6.90;92.20
20512;DHT22;10414;52.074;5.126;2023-02-28T12:47:14;6.90;92.30
20512;DHT22;10414;52.074;5.126;2023-02-28T12:49:45;7.10;92.40
20512;DHT22;10414;52.074;5.126;2023-02-28T12:52:18;7.20;91.80
20512;DHT22;10414;52.074;5.126;2023-02-28T12:54:49;6.90;92.20
20512;DHT22;10414;52.074;5.126;2023-02-28T12:57:27;7.10;92.80
20512;DHT22;10414;52.074;5.126;2023-02-28T12:59:57;7.10;92.40
20512;DHT22;10414;52.074;5.126;2023-02-28T13:03:01;7.20;92.10
20512;DHT22;10414;52.074;5.126;2023-02-28T13:09:00;7.00;91.20
20512;DHT22;10414;52.074;5.126;2023-02-28T13:11:29;7.10;90.80
20512;DHT22;10414;52.074;5.126;2023-02-28T13:13:59;7.10;91.00
20512;DHT22;10414;52.074;5.126;2023-02-28T13:16:26;6.90;90.80
20512;DHT22;10414;52.074;5.126;2023-02-28T13:19:08;6.90;91.40
20512;DHT22;10414;52.074;5.126;2023-02-28T13:21:42;7.00;92.00
20512;DHT22;10414;52.074;5.126;2023-02-28T13:27:33;6.90;91.00
20512;DHT22;10414;52.074;5.126;2023-02-28T13:30:02;7.00;91.70
20512;DHT22;10414;52.074;5.126;2023-02-28T13:33:24;7.10;91.50
20512;DHT22;10414;52.074;5.126;2023-02-28T13:36:07;7.10;91.40
20512;DHT22;10414;52.074;5.126;2023-02-28T13:38:42;7.10;90.80
20512;DHT22;10414;52.074;5.126;2023-02-28T13:41:45;7.20;91.00
20512;DHT22;10414;52.074;5.126;2023-02-28T13:44:15;7.20;91.50
20512;DHT22;10414;52.074;5.126;2023-02-28T13:47:19;7.10;91.50
20512;DHT22;10414;52.074;5.126;2023-02-28T13:49:49;7.20;91.50
20512;DHT22;10414;52.074;5.126;2023-02-28T13:52:20;7.20;91.30
20512;DHT22;10414;52.074;5.126;2023-02-28T13:55:12;7.30;91.00
20512;DHT22;10414;52.074;5.126;2023-02-28T13:57:56;7.20;90.70
20512;DHT22;10414;52.074;5.126;2023-02-28T14:00:36;7.00;91.10
20512;DHT22;10414;52.074;5.126;2023-02-28T14:03:32;7.10;91.40
20512;DHT22;10414;52.074;5.126;2023-02-28T14:06:21;7.40;91.30
20512;DHT22;10414;52.074;5.126;2023-02-28T14:08:54;7.50;91.70
20512;DHT22;10414;52.074;5.126;2023-02-28T14:11:28;7.40;90.60
20512;DHT22;10414;52.074;5.126;2023-02-28T14:13:55;7.30;91.00
20512;DHT22;10414;52.074;5.126;2023-02-28T14:16:24;7.30;90.70
20512;DHT22;10414;52.074;5.126;2023-02-28T14:18:56;7.20;91.10
20512;DHT22;10414;52.074;5.126;2023-02-28T14:21:27;7.20;91.10
20512;DHT22;10414;52.074;5.126;2023-02-28T14:24:17;7.10;90.10
20512;DHT22;10414;52.074;5.126;2023-02-28T14:27:03;7.20;90.70
20512;DHT22;10414;52.074;5.126;2023-02-28T14:32:44;7.40;90.90
20512;DHT22;10414;52.074;5.126;2023-02-28T14:35:27;7.30;91.50
20512;DHT22;10414;52.074;5.126;2023-02-28T14:37:57;7.40;90.40
20512;DHT22;10414;52.074;5.126;2023-02-28T14:40:28;7.20;90.50
20512;DHT22;10414;52.074;5.126;2023-02-28T14:42:58;7.30;90.40
20512;DHT22;10414;52.074;5.126;2023-02-28T14:45:28;7.30;90.00
20512;DHT22;10414;52.074;5.126;2023-02-28T14:47:57;7.30;89.40
20512;DHT22;10414;52.074;5.126;2023-02-28T14:50:27;7.20;90.50
20512;DHT22;10414;52.074;5.126;2023-02-28T14:52:54;7.20;90.20
20512;DHT22;10414;52.074;5.126;2023-02-28T14:55:26;7.20;90.40
20512;DHT22;10414;52.074;5.126;2023-02-28T14:57:56;7.30;90.30
20512;DHT22;10414;52.074;5.126;2023-02-28T15:00:25;7.40;90.40
20512;DHT22;10414;52.074;5.126;2023-02-28T15:02:53;7.30;90.50
20512;DHT22;10414;52.074;5.126;2023-02-28T15:05:27;7.20;90.20
20512;DHT22;10414;52.074;5.126;2023-02-28T15:08:10;7.20;90.70
20512;DHT22;10414;52.074;5.126;2023-02-28T15:10:39;7.30;90.80
20512;DHT22;10414;52.074;5.126;2023-02-28T15:13:12;7.50;91.00
20512;DHT22;10414;52.074;5.126;2023-02-28T15:15:43;7.40;91.10
20512;DHT22;10414;52.074;5.126;2023-02-28T15:18:16;7.40;91.00
20512;DHT22;10414;52.074;5.126;2023-02-28T15:20:47;7.40;91.10
20512;DHT22;10414;52.074;5.126;2023-02-28T15:23:15;7.40;91.20
20512;DHT22;10414;52.074;5.126;2023-02-28T15:25:43;7.30;90.80
20512;DHT22;10414;52.074;5.126;2023-02-28T15:28:15;7.20;90.50
20512;DHT22;10414;52.074;5.126;2023-02-28T15:30:52;7.20;90.50
20512;DHT22;10414;52.074;5.126;2023-02-28T15:33:21;7.10;91.20
20512;DHT22;10414;52.074;5.126;2023-02-28T15:35:49;7.20;91.00
20512;DHT22;10414;52.074;5.126;2023-02-28T15:38:21;7.20;91.40
20512;DHT22;10414;52.074;5.126;2023-02-28T15:40:52;7.20;91.90
20512;DHT22;10414;52.074;5.126;2023-02-28T15:43:26;7.30;91.60
20512;DHT22;10414;52.074;5.126;2023-02-28T15:45:57;7.20;91.70
20512;DHT22;10414;52.074;5.126;2023-02-28T15:48:27;7.30;91.50
20512;DHT22;10414;52.074;5.126;2023-02-28T15:50:56;7.30;91.40
20512;DHT22;10414;52.074;5.126;2023-02-28T15:53:27;7.20;91.70
20512;DHT22;10414;52.074;5.126;2023-02-28T15:55:59;7.10;92.10
20512;DHT22;10414;52.074;5.126;2023-02-28T15:58:27;7.20;91.50
20512;DHT22;10414;52.074;5.126;2023-02-28T16:01:17;7.20;91.50
20512;DHT22;10414;52.074;5.126;2023-02-28T16:03:47;7.20;91.90
20512;DHT22;10414;52.074;5.126;2023-02-28T16:06:39;7.20;91.50
20512;DHT22;10414;52.074;5.126;2023-02-28T16:09:10;7.10;91.60
20512;DHT22;10414;52.074;5.126;2023-02-28T16:11:42;7.00;91.30
20512;DHT22;10414;52.074;5.126;2023-02-28T16:14:16;7.00;91.20
20512;DHT22;10414;52.074;5.126;2023-02-28T16:16:45;7.00;91.20
20512;DHT22;10414;52.074;5.126;2023-02-28T16:19:12;6.80;91.20
20512;DHT22;10414;52.074;5.126;2023-02-28T16:21:39;6.90;91.40